createdAt,value
2023-03-06T00:02:23.791Z,2.97
2023-03-06T00:04:51.448Z,2.85
2023-03-06T00:07:18.733Z,2.80
2023-03-06T00:09:45.849Z,2.75
2023-03-06T00:12:13.043Z,3.38
2023-03-06T00:14:40.153Z,2.75
2023-03-06T00:17:07.225Z,2.97
2023-03-06T00:19:34.341Z,2.75
2023-03-06T00:22:03.280Z,2.85
2023-03-06T00:24:30.717Z,2.65
2023-03-06T00:26:58.152Z,2.40
2023-03-06T00:29:25.555Z,2.13
2023-03-06T00:31:52.715Z,2.38
2023-03-06T00:34:20.066Z,2.53
2023-03-06T00:36:47.247Z,2.60
2023-03-06T00:39:14.483Z,2.60
2023-03-06T00:41:41.595Z,2.30
2023-03-06T00:44:09.090Z,2.20
2023-03-06T00:46:36.548Z,2.40
2023-03-06T00:49:03.946Z,2.42
2023-03-06T00:51:31.418Z,2.40
2023-03-06T00:53:58.877Z,2.30
2023-03-06T00:56:26.350Z,2.97
2023-03-06T00:58:53.864Z,2.40
2023-03-06T01:01:21.454Z,2.10
2023-03-06T01:03:48.885Z,2.42
2023-03-06T01:06:17.501Z,2.13
2023-03-06T01:08:45.014Z,2.40
2023-03-06T01:11:12.391Z,2.15
2023-03-06T01:13:39.875Z,2.13
2023-03-06T01:16:08.537Z,1.80
2023-03-06T01:21:04.404Z,1.98
2023-03-06T01:23:32.364Z,1.73
2023-03-06T01:26:00.173Z,1.90
2023-03-06T01:28:27.958Z,2.00
2023-03-06T01:30:55.108Z,2.10
2023-03-06T01:33:22.347Z,2.10
2023-03-06T01:35:49.906Z,1.75
2023-03-06T01:38:17.535Z,1.90
2023-03-06T01:40:45.137Z,1.98
2023-03-06T01:43:27.818Z,2.10
2023-03-06T01:46:13.923Z,1.65
2023-03-06T01:48:41.425Z,1.85
2023-03-06T01:51:09.808Z,1.80
2023-03-06T01:53:37.269Z,1.63
2023-03-06T01:56:05.271Z,1.90
2023-03-06T01:58:32.765Z,10.10
2023-03-06T02:00:59.967Z,2.03
2023-03-06T02:03:28.514Z,1.73
2023-03-06T02:05:55.853Z,1.50
2023-03-06T02:08:23.691Z,2.60
2023-03-06T02:11:02.257Z,1.90
2023-03-06T02:13:29.894Z,1.67
2023-03-06T02:15:57.285Z,1.60
2023-03-06T02:18:25.212Z,1.75
2023-03-06T02:20:54.373Z,1.63
2023-03-06T02:23:36.423Z,1.60
2023-03-06T02:26:04.057Z,1.52
2023-03-06T02:28:31.579Z,2.03
2023-03-06T02:30:58.851Z,2.30
2023-03-06T02:33:27.272Z,1.50
2023-03-06T02:36:01.996Z,1.40
2023-03-06T02:38:32.001Z,1.83
2023-03-06T02:41:00.118Z,1.90
2023-03-06T02:43:29.148Z,1.30
2023-03-06T02:45:56.834Z,1.98
2023-03-06T02:48:24.290Z,2.65
2023-03-06T02:50:51.768Z,3.05
2023-03-06T02:53:20.483Z,3.50
2023-03-06T02:55:47.976Z,2.67
2023-03-06T02:58:15.817Z,3.10
2023-03-06T03:00:43.291Z,2.63
2023-03-06T03:03:10.899Z,3.00
2023-03-06T03:05:38.389Z,2.85
2023-03-06T03:08:06.094Z,2.67
2023-03-06T03:10:33.479Z,3.30
2023-03-06T03:13:00.624Z,3.03
2023-03-06T03:15:28.344Z,2.35
2023-03-06T03:17:55.784Z,2.55
2023-03-06T03:20:23.235Z,3.05
2023-03-06T03:22:51.951Z,3.03
2023-03-06T03:25:19.763Z,3.10
2023-03-06T03:27:47.071Z,2.43
2023-03-06T03:30:14.652Z,3.30
2023-03-06T03:32:41.773Z,3.10
2023-03-06T03:35:10.472Z,4.15
2023-03-06T03:37:38.160Z,4.82
2023-03-06T03:40:07.072Z,5.40
2023-03-06T03:42:34.416Z,4.90
2023-03-06T03:45:01.603Z,4.28
2023-03-06T03:47:30.144Z,4.32
2023-03-06T03:49:57.625Z,4.80
2023-03-06T03:52:24.852Z,3.63
2023-03-06T03:54:51.996Z,4.45
2023-03-06T03:57:19.086Z,4.25
2023-03-06T03:59:46.609Z,3.78
2023-03-06T04:02:14.849Z,3.95
2023-03-06T04:04:42.303Z,3.08
2023-03-06T04:07:09.954Z,4.43
2023-03-06T04:09:37.105Z,3.97
2023-03-06T04:12:04.380Z,4.35
2023-03-06T04:14:31.856Z,5.60
2023-03-06T04:16:59.218Z,6.50
2023-03-06T04:19:26.404Z,6.07
2023-03-06T04:21:53.630Z,6.60
2023-03-06T04:24:20.718Z,5.53
2023-03-06T04:26:47.821Z,5.75
2023-03-06T04:29:15.155Z,6.13
2023-03-06T04:31:42.847Z,6.75
2023-03-06T04:34:09.965Z,6.40
2023-03-06T04:36:37.565Z,5.90
2023-03-06T04:39:05.079Z,6.05
2023-03-06T04:41:32.593Z,5.82
2023-03-06T04:43:59.773Z,5.10
2023-03-06T04:46:26.933Z,5.15
2023-03-06T04:48:54.362Z,4.50
2023-03-06T04:51:22.308Z,4.63
2023-03-06T04:53:49.839Z,4.00
2023-03-06T04:56:17.229Z,3.53
2023-03-06T04:58:44.989Z,4.15
2023-03-06T05:01:12.388Z,4.38
2023-03-06T05:03:39.582Z,5.00
2023-03-06T05:06:06.985Z,4.38
2023-03-06T05:08:34.458Z,4.00
2023-03-06T05:11:02.031Z,4.32
2023-03-06T05:13:29.782Z,3.95
2023-03-06T05:16:01.526Z,4.45
2023-03-06T05:18:28.662Z,3.83
2023-03-06T05:20:59.538Z,3.72
2023-03-06T05:23:27.439Z,3.30
2023-03-06T05:25:54.840Z,3.33
2023-03-06T05:28:22.329Z,3.55
2023-03-06T05:30:50.128Z,3.38
2023-03-06T05:33:17.449Z,3.83
2023-03-06T05:35:46.076Z,3.85
2023-03-06T05:38:13.824Z,3.45
2023-03-06T05:40:42.027Z,4.18
2023-03-06T05:43:10.447Z,2.65
2023-03-06T05:45:38.494Z,4.00
2023-03-06T05:48:06.401Z,4.10
2023-03-06T05:50:33.898Z,3.63
2023-03-06T05:53:01.319Z,3.50
2023-03-06T05:55:29.639Z,3.50
2023-03-06T05:57:56.803Z,3.35
2023-03-06T06:00:24.314Z,3.50
2023-03-06T06:02:51.814Z,3.20
2023-03-06T06:05:19.238Z,3.42
2023-03-06T06:07:46.635Z,3.60
2023-03-06T06:10:13.935Z,3.65
2023-03-06T06:12:41.014Z,3.60
2023-03-06T06:15:08.371Z,3.75
2023-03-06T06:17:35.602Z,4.07
2023-03-06T06:20:03.730Z,4.15
2023-03-06T06:22:31.259Z,3.63
2023-03-06T06:24:58.700Z,4.95
2023-03-06T06:27:26.210Z,4.93
2023-03-06T06:29:53.820Z,4.60
2023-03-06T06:32:21.373Z,4.28
2023-03-06T06:34:48.845Z,5.22
2023-03-06T06:37:16.221Z,5.07
2023-03-06T06:39:43.835Z,5.20
2023-03-06T06:42:29.369Z,5.30
2023-03-06T06:44:58.665Z,4.95
2023-03-06T06:47:26.231Z,4.50
2023-03-06T06:49:54.782Z,4.15
2023-03-06T06:52:22.662Z,4.97
2023-03-06T06:54:49.830Z,4.22
2023-03-06T06:57:17.243Z,3.70
2023-03-06T06:59:44.950Z,3.85
2023-03-06T07:02:13.573Z,3.60
2023-03-06T07:04:49.336Z,5.05
2023-03-06T07:07:25.502Z,5.85
2023-03-06T07:09:55.464Z,5.45
2023-03-06T07:12:22.940Z,6.00
2023-03-06T07:14:50.159Z,5.55
2023-03-06T07:17:17.370Z,4.60
2023-03-06T07:19:44.681Z,5.28
2023-03-06T07:22:12.539Z,5.50
2023-03-06T07:24:39.893Z,4.95
2023-03-06T07:27:06.980Z,5.82
2023-03-06T07:29:34.634Z,4.43
2023-03-06T07:32:02.232Z,4.28
2023-03-06T07:34:29.542Z,4.13
2023-03-06T07:36:56.788Z,3.92
2023-03-06T07:39:24.031Z,3.63
2023-03-06T07:41:52.446Z,3.70
2023-03-06T07:44:19.804Z,3.00
2023-03-06T07:46:46.979Z,4.40
2023-03-06T07:49:14.321Z,4.15
2023-03-06T07:51:41.805Z,4.38
2023-03-06T07:54:08.990Z,5.80
2023-03-06T07:56:36.149Z,5.90
2023-03-06T07:59:03.313Z,6.45
2023-03-06T08:01:30.711Z,5.10
2023-03-06T08:03:59.386Z,4.55
2023-03-06T08:06:27.281Z,3.75
2023-03-06T08:08:55.611Z,4.20
2023-03-06T08:11:23.939Z,3.80
2023-03-06T08:13:52.989Z,2.88
2023-03-06T08:16:21.655Z,3.97
2023-03-06T08:18:49.335Z,3.28
2023-03-06T08:21:18.123Z,2.42
2023-03-06T08:23:45.533Z,2.40
2023-03-06T08:26:15.728Z,2.10
2023-03-06T08:28:43.680Z,2.42
2023-03-06T08:31:21.118Z,2.30
2023-03-06T08:33:48.530Z,1.75
2023-03-06T08:36:15.661Z,1.70
2023-03-06T08:38:42.809Z,1.92
2023-03-06T08:41:10.136Z,2.00
2023-03-06T08:43:37.634Z,2.05
2023-03-06T08:46:05.054Z,1.67
2023-03-06T08:48:32.241Z,1.85
2023-03-06T08:50:59.714Z,2.13
2023-03-06T08:53:40.656Z,2.17
2023-03-06T08:56:23.606Z,1.80
2023-03-06T08:58:51.445Z,1.63
2023-03-06T09:01:26.479Z,1.40
2023-03-06T09:03:54.538Z,1.80
2023-03-06T09:06:22.443Z,1.42
2023-03-06T09:08:53.017Z,1.65
2023-03-06T09:11:21.200Z,1.73
2023-03-06T09:13:48.591Z,1.38
2023-03-06T09:16:15.842Z,2.30
2023-03-06T09:18:42.984Z,2.03
2023-03-06T09:21:10.424Z,2.67
2023-03-06T09:23:39.510Z,2.13
2023-03-06T09:28:39.146Z,2.00
2023-03-06T09:31:07.562Z,2.22
2023-03-06T09:33:34.926Z,2.00
2023-03-06T09:36:02.267Z,2.03
2023-03-06T09:38:29.424Z,1.63
2023-03-06T09:40:57.283Z,1.55
2023-03-06T09:43:28.800Z,2.42
2023-03-06T09:45:56.577Z,2.20
2023-03-06T09:48:31.615Z,2.20
2023-03-06T09:51:02.295Z,2.20
2023-03-06T09:53:38.512Z,2.15
2023-03-06T09:56:10.169Z,2.38
2023-03-06T09:58:40.800Z,3.03
2023-03-06T10:01:19.739Z,2.80
2023-03-06T10:03:54.587Z,3.83
2023-03-06T10:06:34.408Z,3.15
2023-03-06T10:09:10.985Z,3.22
2023-03-06T10:11:48.890Z,2.50
2023-03-06T10:14:16.245Z,2.88
2023-03-06T10:16:43.411Z,2.50
2023-03-06T10:19:13.942Z,2.70
2023-03-06T10:21:52.916Z,2.25
2023-03-06T10:24:25.041Z,2.13
2023-03-06T10:26:59.349Z,2.40
2023-03-06T10:29:29.310Z,2.10
2023-03-06T10:32:10.231Z,2.05
2023-03-06T10:34:38.357Z,2.40
2023-03-06T10:37:11.886Z,1.83
2023-03-06T10:39:39.421Z,1.75
2023-03-06T10:42:08.114Z,2.13
2023-03-06T10:44:35.473Z,1.25
2023-03-06T10:47:22.557Z,1.88
2023-03-06T10:50:00.893Z,1.88
2023-03-06T10:52:29.802Z,1.90
2023-03-06T10:55:13.308Z,1.75
2023-03-06T10:57:40.472Z,2.40
2023-03-06T11:00:23.977Z,1.70
2023-03-06T11:03:17.380Z,2.25
2023-03-06T11:06:13.896Z,1.98
2023-03-06T11:08:42.357Z,2.03
2023-03-06T11:11:14.096Z,2.38
2023-03-06T11:13:42.796Z,5.07
2023-03-06T11:16:39.272Z,3.88
2023-03-06T11:19:18.769Z,2.08
2023-03-06T11:21:59.250Z,1.88
2023-03-06T11:24:27.246Z,2.08
2023-03-06T11:26:59.709Z,1.92
2023-03-06T11:29:30.509Z,1.90
2023-03-06T11:32:04.128Z,2.13
2023-03-06T11:34:38.330Z,1.83
2023-03-06T11:37:17.697Z,1.75
2023-03-06T11:39:53.377Z,1.70
2023-03-06T11:42:20.782Z,1.77
2023-03-06T11:44:48.154Z,1.83
2023-03-06T11:47:18.225Z,1.77
2023-03-06T11:50:05.810Z,2.00
2023-03-06T11:52:51.619Z,4.22
2023-03-06T11:55:31.162Z,7.68
2023-03-06T11:58:17.251Z,3.08
2023-03-06T12:00:44.661Z,5.28
2023-03-06T12:03:23.345Z,7.38
2023-03-06T12:06:00.984Z,3.95
2023-03-06T12:08:37.155Z,2.47
2023-03-06T12:11:12.166Z,2.10
2023-03-06T12:13:39.884Z,2.00
2023-03-06T12:16:07.754Z,2.50
2023-03-06T12:18:40.875Z,2.40
2023-03-06T12:21:15.113Z,2.20
2023-03-06T12:23:53.130Z,1.67
2023-03-06T12:26:38.335Z,2.20
2023-03-06T12:29:10.723Z,2.20
2023-03-06T12:31:56.919Z,2.35
2023-03-06T12:34:33.225Z,2.42
2023-03-06T12:37:19.076Z,2.30
2023-03-06T12:39:56.286Z,2.10
2023-03-06T12:42:50.905Z,2.30
2023-03-06T12:45:26.822Z,2.05
2023-03-06T12:47:55.826Z,2.10
2023-03-06T12:50:27.490Z,2.78
2023-03-06T12:52:56.350Z,2.65
2023-03-06T12:55:25.904Z,2.50
2023-03-06T12:57:54.010Z,2.90
2023-03-06T13:00:37.300Z,2.80
2023-03-06T13:03:16.669Z,4.53
2023-03-06T13:06:09.119Z,8.68
2023-03-06T13:08:36.561Z,3.00
2023-03-06T13:11:18.842Z,2.47
2023-03-06T13:13:47.858Z,3.08
2023-03-06T13:18:42.633Z,2.55
2023-03-06T13:21:28.377Z,2.60
2023-03-06T13:24:03.575Z,3.42
2023-03-06T13:26:31.002Z,2.63
2023-03-06T13:28:58.616Z,2.90
2023-03-06T13:31:48.845Z,2.78
2023-03-06T13:34:34.579Z,2.70
2023-03-06T13:37:13.841Z,2.63
2023-03-06T13:39:59.323Z,2.67
2023-03-06T13:42:29.375Z,2.75
2023-03-06T13:45:19.885Z,3.10
2023-03-06T13:48:14.190Z,7.85
2023-03-06T13:50:38.789Z,7.22
2023-03-06T13:53:24.108Z,12.05
2023-03-06T13:56:00.819Z,11.13
2023-03-06T13:58:43.695Z,4.28
2023-03-06T14:01:16.684Z,4.60
2023-03-06T14:03:52.315Z,6.22
2023-03-06T14:06:34.465Z,4.47
2023-03-06T14:09:03.901Z,4.50
2023-03-06T14:11:31.738Z,4.20
2023-03-06T14:13:59.607Z,3.05
2023-03-06T14:16:32.703Z,3.00
2023-03-06T14:19:05.077Z,3.70
2023-03-06T14:21:36.971Z,3.30
2023-03-06T14:24:05.313Z,3.53
2023-03-06T14:26:34.293Z,3.15
2023-03-06T14:31:31.008Z,4.40
2023-03-06T14:34:00.485Z,3.92
2023-03-06T14:38:57.025Z,4.38
2023-03-06T14:41:25.834Z,5.28
2023-03-06T14:44:07.187Z,4.35
2023-03-06T14:46:34.413Z,4.75
2023-03-06T14:49:06.129Z,8.77
2023-03-06T14:51:37.341Z,5.95
2023-03-06T14:54:04.915Z,4.10
2023-03-06T14:56:32.512Z,3.92
2023-03-06T14:59:01.332Z,2.85
2023-03-06T15:03:58.205Z,4.60
2023-03-06T15:06:27.734Z,5.00
2023-03-06T15:09:21.129Z,6.82
2023-03-06T15:11:59.396Z,6.05
2023-03-06T15:14:36.903Z,3.55
2023-03-06T15:17:19.367Z,3.33
2023-03-06T15:19:47.637Z,3.05
2023-03-06T15:22:26.437Z,4.38
2023-03-06T15:24:54.422Z,4.50
2023-03-06T15:27:27.389Z,3.55
2023-03-06T15:30:10.312Z,3.60
2023-03-06T15:32:42.523Z,3.17
2023-03-06T15:35:25.415Z,3.20
2023-03-06T15:37:52.596Z,3.30
2023-03-06T15:40:21.052Z,3.72
2023-03-06T15:42:50.125Z,3.67
2023-03-06T15:47:46.453Z,3.50
2023-03-06T15:50:20.983Z,3.15
2023-03-06T15:52:49.019Z,5.78
2023-03-06T15:55:17.447Z,5.03
2023-03-06T15:57:49.323Z,2.88
2023-03-06T16:00:27.341Z,3.08
2023-03-06T16:02:58.607Z,3.50
2023-03-06T16:05:26.872Z,9.30
2023-03-06T16:07:54.454Z,3.95
2023-03-06T16:10:22.855Z,7.25
2023-03-06T16:12:51.389Z,4.18
2023-03-06T16:15:18.741Z,3.53
2023-03-06T16:17:46.308Z,4.78
2023-03-06T16:20:14.813Z,4.05
2023-03-06T16:22:42.199Z,2.78
2023-03-06T16:25:09.802Z,2.95
2023-03-06T16:27:37.022Z,3.15
2023-03-06T16:30:04.898Z,2.83
2023-03-06T16:32:32.587Z,3.27
2023-03-06T16:35:00.119Z,2.70
2023-03-06T16:37:27.458Z,3.72
2023-03-06T16:39:54.974Z,3.90
2023-03-06T16:42:23.212Z,2.85
2023-03-06T16:44:50.446Z,18.47
2023-03-06T16:47:19.024Z,10.50
2023-03-06T16:49:46.517Z,19.15
2023-03-06T16:52:14.633Z,14.32
2023-03-06T16:54:44.255Z,9.23
2023-03-06T16:57:13.930Z,7.18
2023-03-06T17:02:09.652Z,3.90
2023-03-06T17:07:05.440Z,2.95
2023-03-06T17:09:32.637Z,2.95
2023-03-06T17:12:00.442Z,3.03
2023-03-06T17:14:28.175Z,3.30
2023-03-06T17:16:56.033Z,4.57
2023-03-06T17:19:23.709Z,5.60
2023-03-06T17:21:52.152Z,3.65
2023-03-06T17:24:19.292Z,4.43
2023-03-06T17:26:48.510Z,3.90
2023-03-06T17:31:43.487Z,8.23
2023-03-06T17:34:10.840Z,13.48
2023-03-06T17:36:38.125Z,13.38
2023-03-06T17:39:05.672Z,6.20
2023-03-06T17:41:34.137Z,4.97
2023-03-06T17:44:01.924Z,5.57
2023-03-06T17:46:29.805Z,7.63
2023-03-06T17:48:57.242Z,5.22
2023-03-06T17:51:24.673Z,3.55
2023-03-06T17:53:52.335Z,3.38
2023-03-06T17:56:19.871Z,3.80
2023-03-06T17:58:47.708Z,6.10
2023-03-06T18:01:17.091Z,6.32
2023-03-06T18:03:46.655Z,7.72
2023-03-06T18:06:14.341Z,3.83
2023-03-06T18:08:41.836Z,11.45
2023-03-06T18:11:11.377Z,8.07
2023-03-06T18:13:40.494Z,6.40
2023-03-06T18:16:08.534Z,4.88
2023-03-06T18:18:36.108Z,4.83
2023-03-06T18:21:07.258Z,3.38
2023-03-06T18:23:36.216Z,3.20
2023-03-06T18:26:29.850Z,2.92
2023-03-06T18:28:58.633Z,3.15
2023-03-06T18:31:34.047Z,3.00
2023-03-06T18:34:04.182Z,3.00
2023-03-06T18:36:33.015Z,7.35
2023-03-06T18:41:31.509Z,3.10
2023-03-06T18:44:02.665Z,3.22
2023-03-06T18:46:31.489Z,3.92
2023-03-06T18:48:58.728Z,3.10
2023-03-06T18:51:26.120Z,3.05
2023-03-06T18:53:56.339Z,4.28
2023-03-06T18:56:24.412Z,4.72
2023-03-06T18:58:52.809Z,3.45
2023-03-06T19:01:21.257Z,4.47
2023-03-06T19:03:49.095Z,3.75
2023-03-06T19:06:17.437Z,3.80
2023-03-06T19:08:45.221Z,3.13
2023-03-06T19:11:14.181Z,8.95
2023-03-06T19:13:41.866Z,6.97
2023-03-06T19:16:16.974Z,12.10
2023-03-06T19:18:45.086Z,4.90
2023-03-06T19:21:17.413Z,3.47
2023-03-06T19:23:45.172Z,3.75
2023-03-06T19:26:12.581Z,3.40
2023-03-06T19:28:40.884Z,3.50
2023-03-06T19:31:12.723Z,3.58
2023-03-06T19:33:41.364Z,3.10
2023-03-06T19:36:10.178Z,2.40
2023-03-06T19:38:38.063Z,2.58
2023-03-06T19:41:06.225Z,2.67
2023-03-06T19:43:33.905Z,2.72
2023-03-06T19:46:01.871Z,2.60
2023-03-06T19:48:30.000Z,2.70
2023-03-06T19:51:02.531Z,3.08
2023-03-06T19:53:30.328Z,3.20
2023-03-06T19:56:04.551Z,2.70
2023-03-06T19:58:33.198Z,2.92
2023-03-06T20:01:08.829Z,2.70
2023-03-06T20:03:36.971Z,2.85
2023-03-06T20:06:09.016Z,1.93
2023-03-06T20:08:36.941Z,2.63
2023-03-06T20:11:04.342Z,2.78
2023-03-06T20:13:32.116Z,3.10
2023-03-06T20:16:02.237Z,2.92
2023-03-06T20:18:29.728Z,2.72
2023-03-06T20:21:00.780Z,2.97
2023-03-06T20:23:28.973Z,3.58
2023-03-06T20:25:56.571Z,2.97
2023-03-06T20:28:24.788Z,2.92
2023-03-06T20:30:52.595Z,2.63
2023-03-06T20:33:22.306Z,2.00
2023-03-06T20:35:49.518Z,2.88
2023-03-06T20:38:16.751Z,2.60
2023-03-06T20:40:44.201Z,2.47
2023-03-06T20:43:12.017Z,2.35
2023-03-06T20:45:39.846Z,2.75
2023-03-06T20:48:07.712Z,2.42
2023-03-06T20:50:35.747Z,2.70
2023-03-06T20:53:03.055Z,2.15
2023-03-06T20:55:30.406Z,2.47
2023-03-06T20:57:58.131Z,2.40
2023-03-06T21:00:25.890Z,2.80
2023-03-06T21:02:53.427Z,2.40
2023-03-06T21:05:20.831Z,2.13
2023-03-06T21:07:48.610Z,2.45
2023-03-06T21:10:16.308Z,2.22
2023-03-06T21:12:44.901Z,2.42
2023-03-06T21:15:13.017Z,2.50
2023-03-06T21:17:40.750Z,2.33
2023-03-06T21:20:09.238Z,2.72
2023-03-06T21:22:37.142Z,4.00
2023-03-06T21:25:04.500Z,2.60
2023-03-06T21:27:32.036Z,3.00
2023-03-06T21:29:59.605Z,3.42
2023-03-06T21:32:27.092Z,3.40
2023-03-06T21:34:54.249Z,3.78
2023-03-06T21:37:21.474Z,2.63
2023-03-06T21:39:48.833Z,2.40
2023-03-06T21:42:16.553Z,2.33
2023-03-06T21:44:44.132Z,2.35
2023-03-06T21:47:11.598Z,2.38
2023-03-06T21:49:38.972Z,2.20
2023-03-06T21:52:06.571Z,2.17
2023-03-06T21:54:33.970Z,1.75
2023-03-06T21:57:01.598Z,1.90
2023-03-06T21:59:29.011Z,2.20
2023-03-06T22:01:56.248Z,2.25
2023-03-06T22:04:23.507Z,1.80
2023-03-06T22:06:51.187Z,1.70
2023-03-06T22:09:19.949Z,2.40
2023-03-06T22:11:47.428Z,2.47
2023-03-06T22:14:14.936Z,2.33
2023-03-06T22:16:44.294Z,3.95
2023-03-06T22:19:11.814Z,2.80
2023-03-06T22:21:39.261Z,3.30
2023-03-06T22:24:06.741Z,2.58
2023-03-06T22:26:33.905Z,2.17
2023-03-06T22:29:01.091Z,2.05
2023-03-06T22:31:29.151Z,1.98
2023-03-06T22:33:57.389Z,2.10
2023-03-06T22:36:24.845Z,2.58
2023-03-06T22:38:56.326Z,2.30
2023-03-06T22:41:25.709Z,2.50
2023-03-06T22:43:59.833Z,2.38
2023-03-06T22:46:27.759Z,2.28
2023-03-06T22:49:01.324Z,2.33
2023-03-06T22:51:29.620Z,2.40
2023-03-06T22:53:56.792Z,2.00
2023-03-06T22:56:24.430Z,2.00
2023-03-06T22:58:52.029Z,2.03
2023-03-06T23:01:23.370Z,2.05
2023-03-06T23:03:51.931Z,1.65
2023-03-06T23:06:20.776Z,1.85
2023-03-06T23:08:55.227Z,1.70
2023-03-06T23:11:23.688Z,1.90
2023-03-06T23:13:50.835Z,2.47
2023-03-06T23:16:18.006Z,2.25
2023-03-06T23:18:45.632Z,2.10
2023-03-06T23:21:14.304Z,2.08
2023-03-06T23:23:42.817Z,1.92
2023-03-06T23:26:12.890Z,2.03
2023-03-06T23:28:40.834Z,1.65
2023-03-06T23:31:08.583Z,1.85
2023-03-06T23:33:36.963Z,2.10
2023-03-06T23:36:05.369Z,1.63
2023-03-06T23:38:32.761Z,2.10
2023-03-06T23:41:07.788Z,1.90
2023-03-06T23:43:34.992Z,2.28
2023-03-06T23:46:02.381Z,1.80
2023-03-06T23:48:29.974Z,1.90
2023-03-06T23:50:57.542Z,1.55
2023-03-06T23:53:24.684Z,2.00
2023-03-06T23:55:52.210Z,1.83
2023-03-06T23:58:20.068Z,1.83
